createdAt,value
2017-10-14T00:01:19.581Z,11.40
2017-10-14T00:03:47.194Z,11.40
2017-10-14T00:06:14.784Z,11.40
2017-10-14T00:08:42.363Z,11.20
2017-10-14T00:11:10.163Z,11.10
2017-10-14T00:13:37.728Z,11.20
2017-10-14T00:16:05.315Z,11.20
2017-10-14T00:18:32.883Z,11.30
2017-10-14T00:21:00.480Z,11.30
2017-10-14T00:23:28.844Z,11.30
2017-10-14T00:25:56.463Z,11.30
2017-10-14T00:28:24.040Z,11.20
2017-10-14T00:30:51.630Z,11.10
2017-10-14T00:33:19.971Z,10.90
2017-10-14T00:35:47.563Z,10.90
2017-10-14T00:38:15.919Z,10.90
2017-10-14T00:40:43.511Z,10.90
2017-10-14T00:43:11.088Z,10.80
2017-10-14T00:45:38.683Z,10.80
2017-10-14T00:48:06.267Z,10.90
2017-10-14T00:50:33.858Z,11.00
2017-10-14T00:53:01.427Z,11.20
2017-10-14T00:55:28.993Z,11.20
2017-10-14T00:57:56.599Z,11.00
2017-10-14T01:00:24.172Z,11.00
2017-10-14T01:02:52.528Z,10.80
2017-10-14T01:05:20.112Z,10.80
2017-10-14T01:07:48.723Z,10.80
2017-10-14T01:10:16.282Z,10.80
2017-10-14T01:12:43.876Z,10.80
2017-10-14T01:15:11.444Z,10.70
2017-10-14T01:17:39.044Z,10.70
2017-10-14T01:20:06.632Z,10.60
2017-10-14T01:22:34.209Z,10.60
2017-10-14T01:25:01.848Z,10.70
2017-10-14T01:27:29.428Z,10.60
2017-10-14T01:29:57.039Z,10.60
2017-10-14T01:32:24.625Z,10.70
2017-10-14T01:34:52.203Z,10.60
2017-10-14T01:37:19.800Z,10.60
2017-10-14T01:39:48.136Z,10.60
2017-10-14T01:42:15.731Z,10.50
2017-10-14T01:44:44.156Z,10.60
2017-10-14T01:47:11.763Z,10.60
2017-10-14T01:49:40.099Z,10.70
2017-10-14T01:52:07.669Z,10.70
2017-10-14T01:54:35.410Z,10.80
2017-10-14T01:57:02.984Z,10.70
2017-10-14T01:59:30.591Z,10.80
2017-10-14T02:01:58.944Z,10.70
2017-10-14T02:04:26.507Z,10.70
2017-10-14T02:06:54.111Z,10.50
2017-10-14T02:09:21.677Z,10.50
2017-10-14T02:11:49.270Z,10.50
2017-10-14T02:14:16.846Z,10.40
2017-10-14T02:16:44.456Z,10.30
2017-10-14T02:19:12.024Z,10.30
2017-10-14T02:21:39.618Z,10.40
2017-10-14T02:24:07.206Z,10.40
2017-10-14T02:26:34.828Z,10.40
2017-10-14T02:29:02.424Z,10.50
2017-10-14T02:31:29.996Z,10.60
2017-10-14T02:33:57.605Z,10.50
2017-10-14T02:36:25.338Z,10.30
2017-10-14T02:38:52.920Z,10.20
2017-10-14T02:41:20.550Z,10.20
2017-10-14T02:43:48.132Z,10.20
2017-10-14T02:46:15.743Z,10.20
2017-10-14T02:48:43.309Z,10.30
2017-10-14T02:51:10.846Z,10.30
2017-10-14T02:53:39.229Z,10.20
2017-10-14T02:56:06.800Z,10.20
2017-10-14T02:58:34.379Z,10.10
2017-10-14T03:01:01.943Z,10.10
2017-10-14T03:03:29.547Z,10.00
2017-10-14T03:05:57.892Z,10.00
2017-10-14T03:08:25.475Z,10.00
2017-10-14T03:10:53.838Z,10.00
2017-10-14T03:13:21.411Z,10.00
2017-10-14T03:15:49.003Z,10.10
2017-10-14T03:18:16.575Z,10.10
2017-10-14T03:20:44.183Z,10.10
2017-10-14T03:23:11.748Z,10.10
2017-10-14T03:25:39.339Z,10.10
2017-10-14T03:28:06.932Z,10.20
2017-10-14T03:30:34.511Z,10.30
2017-10-14T03:33:02.163Z,10.10
2017-10-14T03:35:29.723Z,9.90
2017-10-14T03:37:57.339Z,9.90
2017-10-14T03:40:24.898Z,9.90
2017-10-14T03:42:52.495Z,9.80
2017-10-14T03:45:20.255Z,9.80
2017-10-14T03:47:47.860Z,9.80
2017-10-14T03:50:16.188Z,9.90
2017-10-14T03:52:43.757Z,9.90
2017-10-14T03:55:11.375Z,10.00
2017-10-14T03:57:38.947Z,9.90
2017-10-14T04:00:06.531Z,9.80
2017-10-14T04:02:34.099Z,9.70
2017-10-14T04:05:01.801Z,9.70
2017-10-14T04:07:29.376Z,9.70
2017-10-14T04:09:56.942Z,9.70
2017-10-14T04:12:24.556Z,9.70
2017-10-14T04:14:52.884Z,9.70
2017-10-14T04:17:20.470Z,9.60
2017-10-14T04:19:48.040Z,9.60
2017-10-14T04:22:15.785Z,9.60
2017-10-14T04:24:43.351Z,9.60
2017-10-14T04:27:11.707Z,9.70
2017-10-14T04:29:39.268Z,9.70
2017-10-14T04:32:06.843Z,9.70
2017-10-14T04:34:34.426Z,9.70
2017-10-14T04:37:02.768Z,9.60
2017-10-14T04:39:30.368Z,9.60
2017-10-14T04:41:58.711Z,9.60
2017-10-14T04:44:26.287Z,9.50
2017-10-14T04:46:53.907Z,9.40
2017-10-14T04:49:21.615Z,9.30
2017-10-14T04:51:49.968Z,9.60
2017-10-14T04:54:17.536Z,9.60
2017-10-14T04:56:45.123Z,9.70
2017-10-14T04:59:13.451Z,9.50
2017-10-14T05:01:41.047Z,9.50
2017-10-14T05:04:09.390Z,9.50
2017-10-14T05:06:36.980Z,9.40
2017-10-14T05:09:05.332Z,9.40
2017-10-14T05:11:32.923Z,9.30
2017-10-14T05:14:01.292Z,9.40
2017-10-14T05:16:28.891Z,9.40
2017-10-14T05:18:56.454Z,9.40
2017-10-14T05:21:24.039Z,9.40
2017-10-14T05:23:51.620Z,9.40
2017-10-14T05:26:19.186Z,9.40
2017-10-14T05:28:46.815Z,9.40
2017-10-14T05:31:14.407Z,9.40
2017-10-14T05:33:42.771Z,9.40
2017-10-14T05:36:10.368Z,9.40
2017-10-14T05:38:37.938Z,9.30
2017-10-14T05:41:05.556Z,9.30
2017-10-14T05:43:33.184Z,9.20
2017-10-14T05:46:00.764Z,9.20
2017-10-14T05:48:28.351Z,9.20
2017-10-14T05:50:56.691Z,9.20
2017-10-14T05:53:24.270Z,9.20
2017-10-14T05:55:51.864Z,9.20
2017-10-14T05:58:19.468Z,9.20
2017-10-14T06:00:47.047Z,9.20
2017-10-14T06:03:14.826Z,9.20
2017-10-14T06:05:43.171Z,9.40
2017-10-14T06:08:10.784Z,9.40
2017-10-14T06:10:38.401Z,9.60
2017-10-14T06:13:05.963Z,9.50
2017-10-14T06:15:34.320Z,9.70
2017-10-14T06:18:01.878Z,9.60
2017-10-14T06:20:29.481Z,9.80
2017-10-14T06:22:57.058Z,9.80
2017-10-14T06:25:24.624Z,9.80
2017-10-14T06:27:52.244Z,9.70
2017-10-14T06:30:20.628Z,9.80
2017-10-14T06:32:49.063Z,9.80
2017-10-14T06:35:16.643Z,9.80
2017-10-14T06:37:44.231Z,9.90
2017-10-14T06:40:11.903Z,10.10
2017-10-14T06:42:39.504Z,10.00
2017-10-14T06:45:07.116Z,10.10
2017-10-14T06:47:34.772Z,10.30
2017-10-14T06:50:02.536Z,10.50
2017-10-14T06:52:30.115Z,10.60
2017-10-14T06:54:57.771Z,10.40
2017-10-14T06:57:25.407Z,10.30
2017-10-14T06:59:53.800Z,10.30
2017-10-14T07:02:21.392Z,10.30
2017-10-14T07:04:49.031Z,10.50
2017-10-14T07:07:16.652Z,10.70
2017-10-14T07:09:45.024Z,10.80
2017-10-14T07:12:12.848Z,10.70
2017-10-14T07:14:40.432Z,10.60
2017-10-14T07:17:08.033Z,10.60
2017-10-14T07:19:35.680Z,10.80
2017-10-14T07:22:04.038Z,11.10
2017-10-14T07:24:31.647Z,11.10
2017-10-14T07:26:59.246Z,11.00
2017-10-14T07:29:26.855Z,11.00
2017-10-14T07:31:54.431Z,11.40
2017-10-14T07:34:22.010Z,11.40
2017-10-14T07:36:49.703Z,11.20
2017-10-14T07:39:18.067Z,11.50
2017-10-14T07:41:45.643Z,11.50
2017-10-14T07:44:14.087Z,11.30
2017-10-14T07:46:41.652Z,11.30
2017-10-14T07:49:10.035Z,11.40
2017-10-14T07:51:37.622Z,11.40
2017-10-14T07:54:05.967Z,11.40
2017-10-14T07:56:33.552Z,11.40
2017-10-14T07:59:01.886Z,11.70
2017-10-14T08:01:29.509Z,11.60
2017-10-14T08:03:57.124Z,11.90
2017-10-14T08:06:24.722Z,12.10
2017-10-14T08:08:53.091Z,11.90
2017-10-14T08:11:21.610Z,12.20
2017-10-14T08:13:49.219Z,12.20
2017-10-14T08:16:16.820Z,12.20
2017-10-14T08:18:44.427Z,12.10
2017-10-14T08:21:12.001Z,12.10
2017-10-14T08:23:40.356Z,12.20
2017-10-14T08:26:07.940Z,12.20
2017-10-14T08:28:36.301Z,12.30
2017-10-14T08:31:04.659Z,12.30
2017-10-14T08:33:32.231Z,12.30
2017-10-14T08:35:59.814Z,12.40
2017-10-14T08:38:28.154Z,12.70
2017-10-14T08:40:55.732Z,12.70
2017-10-14T08:43:24.119Z,13.30
2017-10-14T08:45:52.643Z,13.20
2017-10-14T08:48:20.236Z,13.20
2017-10-14T08:50:47.823Z,13.50
2017-10-14T08:53:16.195Z,13.90
2017-10-14T08:55:44.545Z,14.00
2017-10-14T08:58:12.223Z,14.00
2017-10-14T09:00:41.295Z,14.70
2017-10-14T09:03:08.876Z,14.70
2017-10-14T09:05:36.476Z,15.10
2017-10-14T09:08:04.047Z,15.50
2017-10-14T09:10:31.656Z,15.80
2017-10-14T09:12:59.246Z,16.10
2017-10-14T09:15:26.812Z,16.00
2017-10-14T09:17:54.431Z,15.70
2017-10-14T09:20:21.983Z,15.40
2017-10-14T09:22:49.583Z,15.40
2017-10-14T09:25:17.145Z,15.30
2017-10-14T09:27:44.741Z,15.90
2017-10-14T09:30:12.311Z,16.60
2017-10-14T09:32:39.881Z,19.60
2017-10-14T09:35:07.671Z,20.90
2017-10-14T09:37:36.020Z,19.50
2017-10-14T09:40:03.619Z,19.50
2017-10-14T09:42:31.222Z,19.10
2017-10-14T09:44:58.855Z,18.30
2017-10-14T09:47:26.479Z,18.80
2017-10-14T09:49:54.864Z,17.60
2017-10-14T09:52:22.541Z,17.60
2017-10-14T09:54:50.144Z,17.50
2017-10-14T09:57:17.747Z,19.20
2017-10-14T09:59:45.417Z,19.20
2017-10-14T10:02:13.253Z,18.20
2017-10-14T10:04:41.578Z,18.90
2017-10-14T10:07:09.237Z,18.90
2017-10-14T10:09:36.812Z,18.30
2017-10-14T10:12:04.387Z,18.00
2017-10-14T10:14:31.979Z,18.30
2017-10-14T10:17:00.311Z,19.10
2017-10-14T10:19:27.906Z,19.10
2017-10-14T10:21:56.231Z,23.30
2017-10-14T10:24:23.883Z,23.30
2017-10-14T10:26:51.648Z,23.00
2017-10-14T10:29:19.225Z,22.90
2017-10-14T10:31:46.791Z,22.40
2017-10-14T10:34:14.460Z,23.10
2017-10-14T10:36:42.059Z,24.40
2017-10-14T10:39:09.648Z,25.90
2017-10-14T10:41:37.221Z,26.10
2017-10-14T10:44:04.832Z,23.40
2017-10-14T10:46:32.402Z,22.30
2017-10-14T10:49:00.019Z,20.30
2017-10-14T10:51:27.611Z,19.90
2017-10-14T10:53:55.246Z,20.80
2017-10-14T10:56:23.623Z,21.60
2017-10-14T10:58:51.960Z,20.80
2017-10-14T11:01:19.685Z,20.70
2017-10-14T11:03:47.358Z,22.30
2017-10-14T11:06:14.970Z,22.10
2017-10-14T11:08:42.529Z,24.30
2017-10-14T11:11:10.179Z,25.20
2017-10-14T11:13:37.747Z,24.80
2017-10-14T11:16:05.477Z,23.10
2017-10-14T11:18:33.101Z,21.80
2017-10-14T11:21:00.733Z,22.00
2017-10-14T11:23:28.295Z,21.60
2017-10-14T11:25:56.727Z,21.90
2017-10-14T11:28:24.307Z,21.90
2017-10-14T11:30:51.871Z,22.90
2017-10-14T11:33:19.479Z,25.50
2017-10-14T11:35:47.064Z,22.20
2017-10-14T11:38:14.676Z,20.90
2017-10-14T11:40:43.067Z,21.40
2017-10-14T11:43:10.651Z,21.40
2017-10-14T11:45:38.247Z,22.30
2017-10-14T11:48:06.584Z,24.00
2017-10-14T11:50:34.179Z,24.00
2017-10-14T11:53:01.752Z,25.30
2017-10-14T11:55:29.372Z,23.40
2017-10-14T11:57:56.962Z,23.40
2017-10-14T12:00:24.538Z,22.40
2017-10-14T12:02:52.891Z,22.10
2017-10-14T12:05:20.519Z,22.00
2017-10-14T12:07:48.103Z,22.10
2017-10-14T12:10:15.664Z,21.10
2017-10-14T12:12:43.263Z,20.90
2017-10-14T12:15:11.640Z,20.60
2017-10-14T12:17:40.108Z,20.30
2017-10-14T12:20:08.538Z,20.80
2017-10-14T12:22:36.128Z,20.70
2017-10-14T12:25:03.699Z,21.80
2017-10-14T12:27:32.074Z,22.10
2017-10-14T12:30:00.407Z,21.50
2017-10-14T12:32:27.987Z,21.50
2017-10-14T12:34:55.616Z,21.40
2017-10-14T12:37:23.219Z,21.50
2017-10-14T12:39:50.783Z,21.00
2017-10-14T12:42:18.457Z,21.00
2017-10-14T12:44:46.793Z,21.80
2017-10-14T12:47:14.380Z,21.80
2017-10-14T12:49:42.729Z,21.60
2017-10-14T12:52:10.312Z,21.60
2017-10-14T12:54:37.928Z,21.70
2017-10-14T12:57:05.497Z,22.70
2017-10-14T12:59:33.087Z,22.90
2017-10-14T13:02:01.425Z,22.10
2017-10-14T13:04:29.016Z,22.10
2017-10-14T13:06:56.603Z,26.60
2017-10-14T13:09:24.925Z,23.60
2017-10-14T13:11:52.519Z,23.50
2017-10-14T13:14:20.164Z,23.10
2017-10-14T13:16:47.734Z,22.60
2017-10-14T13:19:16.124Z,23.80
2017-10-14T13:21:44.460Z,22.40
2017-10-14T13:24:12.052Z,22.30
2017-10-14T13:26:40.383Z,26.50
2017-10-14T13:29:07.947Z,26.40
2017-10-14T13:31:35.535Z,27.50
2017-10-14T13:34:03.110Z,25.50
2017-10-14T13:36:31.572Z,22.90
2017-10-14T13:38:59.142Z,22.90
2017-10-14T13:41:27.516Z,22.10
2017-10-14T13:43:55.076Z,22.10
2017-10-14T13:46:23.551Z,21.90
2017-10-14T13:48:51.116Z,21.90
2017-10-14T13:51:19.496Z,23.30
2017-10-14T13:53:47.836Z,25.20
2017-10-14T13:56:15.404Z,25.20
2017-10-14T13:58:42.999Z,23.90
2017-10-14T14:01:11.516Z,22.80
2017-10-14T14:03:39.090Z,22.80
2017-10-14T14:06:06.961Z,23.20
2017-10-14T14:08:34.534Z,24.60
2017-10-14T14:11:02.123Z,26.10
2017-10-14T14:13:30.470Z,25.00
2017-10-14T14:15:58.296Z,24.90
2017-10-14T14:18:25.859Z,24.60
2017-10-14T14:20:53.426Z,23.00
2017-10-14T14:23:21.027Z,22.90
2017-10-14T14:25:49.528Z,22.50
2017-10-14T14:28:17.135Z,22.50
2017-10-14T14:30:44.700Z,22.40
2017-10-14T14:33:12.367Z,22.10
2017-10-14T14:35:39.928Z,22.00
2017-10-14T14:38:07.504Z,21.80
2017-10-14T14:40:35.877Z,22.20
2017-10-14T14:43:04.224Z,22.30
2017-10-14T14:45:31.824Z,22.40
2017-10-14T14:48:00.201Z,23.80
2017-10-14T14:50:28.555Z,23.10
2017-10-14T14:52:57.643Z,22.70
2017-10-14T14:55:25.209Z,22.70
2017-10-14T14:57:52.800Z,23.50
2017-10-14T15:00:20.392Z,22.60
2017-10-14T15:02:47.984Z,22.70
2017-10-14T15:05:15.568Z,22.90
2017-10-14T15:07:43.930Z,22.40
2017-10-14T15:10:12.272Z,22.40
2017-10-14T15:12:39.844Z,22.40
2017-10-14T15:15:07.452Z,22.30
2017-10-14T15:17:35.028Z,22.60
2017-10-14T15:20:02.656Z,21.90
2017-10-14T15:22:30.983Z,21.50
2017-10-14T15:24:58.591Z,21.50
2017-10-14T15:27:26.928Z,21.20
2017-10-14T15:29:54.498Z,21.20
2017-10-14T15:32:23.025Z,21.20
2017-10-14T15:34:50.610Z,21.30
2017-10-14T15:37:18.225Z,21.20
2017-10-14T15:39:46.668Z,21.10
2017-10-14T15:42:14.265Z,21.10
2017-10-14T15:44:41.840Z,20.90
2017-10-14T15:47:09.435Z,20.80
2017-10-14T15:49:36.998Z,20.40
2017-10-14T15:52:04.564Z,20.30
2017-10-14T15:54:32.130Z,20.30
2017-10-14T15:56:59.709Z,20.20
2017-10-14T15:59:28.091Z,19.80
2017-10-14T16:01:55.687Z,19.80
2017-10-14T16:04:23.260Z,19.80
2017-10-14T16:06:50.867Z,19.90
2017-10-14T16:09:19.332Z,19.60
2017-10-14T16:11:47.836Z,19.50
2017-10-14T16:14:15.411Z,19.50
2017-10-14T16:16:42.999Z,19.60
2017-10-14T16:19:10.566Z,19.40
2017-10-14T16:21:38.147Z,19.60
2017-10-14T16:24:06.537Z,20.40
2017-10-14T16:26:34.864Z,20.50
2017-10-14T16:29:02.460Z,20.50
2017-10-14T16:31:30.837Z,19.80
2017-10-14T16:33:59.219Z,20.00
2017-10-14T16:36:27.551Z,20.30
2017-10-14T16:38:55.116Z,20.30
2017-10-14T16:41:22.721Z,20.20
2017-10-14T16:43:50.356Z,20.00
2017-10-14T16:46:17.962Z,19.80
2017-10-14T16:48:45.532Z,19.70
2017-10-14T16:51:13.172Z,19.50
2017-10-14T16:53:40.841Z,19.40
2017-10-14T16:56:08.423Z,19.30
2017-10-14T16:58:36.013Z,19.30
2017-10-14T17:01:03.696Z,19.20
2017-10-14T17:03:32.081Z,19.10
2017-10-14T17:05:59.657Z,19.00
2017-10-14T17:08:27.220Z,19.00
2017-10-14T17:10:54.828Z,19.00
2017-10-14T17:13:22.393Z,18.90
2017-10-14T17:15:50.739Z,18.80
2017-10-14T17:18:18.466Z,18.80
2017-10-14T17:20:46.067Z,18.70
2017-10-14T17:23:14.400Z,18.60
2017-10-14T17:25:41.967Z,18.60
2017-10-14T17:28:09.635Z,18.60
2017-10-14T17:30:37.200Z,18.50
2017-10-14T17:33:04.811Z,18.30
2017-10-14T17:35:33.148Z,18.20
2017-10-14T17:38:00.752Z,18.20
2017-10-14T17:40:29.079Z,18.10
2017-10-14T17:42:56.676Z,18.10
2017-10-14T17:45:25.039Z,18.10
2017-10-14T17:47:52.653Z,18.00
2017-10-14T17:50:20.272Z,18.00
2017-10-14T17:52:48.632Z,17.90
2017-10-14T17:55:16.198Z,17.90
2017-10-14T17:57:44.567Z,17.90
2017-10-14T18:00:12.200Z,17.80
2017-10-14T18:02:39.811Z,17.80
2017-10-14T18:05:08.173Z,17.70
2017-10-14T18:07:36.518Z,17.60
2017-10-14T18:10:04.127Z,17.50
2017-10-14T18:12:31.734Z,17.50
2017-10-14T18:14:59.338Z,17.50
2017-10-14T18:17:27.684Z,17.10
2017-10-14T18:19:55.296Z,17.10
2017-10-14T18:22:22.888Z,16.50
2017-10-14T18:24:50.459Z,16.20
2017-10-14T18:27:18.039Z,16.00
2017-10-14T18:29:45.607Z,15.90
2017-10-14T18:32:13.988Z,16.30
2017-10-14T18:34:42.362Z,16.40
2017-10-14T18:37:10.720Z,16.10
2017-10-14T18:39:39.124Z,15.80
2017-10-14T18:42:07.485Z,15.70
2017-10-14T18:44:35.868Z,15.50
2017-10-14T18:47:04.233Z,15.40
2017-10-14T18:49:31.809Z,15.40
2017-10-14T18:52:00.312Z,15.40
2017-10-14T18:54:27.887Z,15.40
2017-10-14T18:56:55.505Z,15.80
2017-10-14T18:59:23.848Z,15.80
2017-10-14T19:01:51.426Z,15.80
2017-10-14T19:04:19.044Z,16.00
2017-10-14T19:06:46.616Z,15.40
2017-10-14T19:09:14.261Z,15.20
2017-10-14T19:11:41.885Z,15.00
2017-10-14T19:14:10.270Z,15.10
2017-10-14T19:16:37.860Z,15.00
2017-10-14T19:19:05.463Z,15.10
2017-10-14T19:21:33.040Z,15.00
2017-10-14T19:24:01.392Z,15.30
2017-10-14T19:26:30.519Z,15.20
2017-10-14T19:28:58.202Z,15.20
2017-10-14T19:31:25.872Z,15.00
2017-10-14T19:33:53.454Z,14.70
2017-10-14T19:36:21.056Z,14.60
2017-10-14T19:38:48.625Z,14.50
2017-10-14T19:41:16.267Z,14.50
2017-10-14T19:43:44.644Z,14.50
2017-10-14T19:46:13.016Z,14.60
2017-10-14T19:48:41.357Z,14.90
2017-10-14T19:51:08.940Z,14.90
2017-10-14T19:53:36.532Z,15.10
2017-10-14T19:56:04.111Z,15.20
2017-10-14T19:58:31.695Z,15.20
2017-10-14T20:00:59.378Z,14.70
2017-10-14T20:03:26.975Z,14.50
2017-10-14T20:05:54.652Z,14.40
2017-10-14T20:08:22.408Z,14.20
2017-10-14T20:10:49.992Z,14.20
2017-10-14T20:13:17.565Z,14.20
2017-10-14T20:15:45.180Z,14.30
2017-10-14T20:18:12.772Z,14.30
2017-10-14T20:20:40.377Z,14.10
2017-10-14T20:23:08.741Z,13.90
2017-10-14T20:25:37.121Z,13.90
2017-10-14T20:28:05.462Z,14.10
2017-10-14T20:30:33.035Z,14.10
2017-10-14T20:33:02.157Z,14.40
2017-10-14T20:35:30.557Z,14.40
2017-10-14T20:37:58.164Z,14.40
2017-10-14T20:40:25.762Z,14.40
2017-10-14T20:42:53.336Z,14.00
2017-10-14T20:45:20.937Z,13.90
2017-10-14T20:47:49.283Z,13.70
2017-10-14T20:50:16.930Z,13.70
2017-10-14T20:52:44.525Z,13.60
2017-10-14T20:55:12.145Z,13.50
2017-10-14T20:57:39.716Z,13.50
2017-10-14T21:00:07.353Z,13.40
2017-10-14T21:02:34.921Z,13.40
2017-10-14T21:05:02.533Z,13.40
2017-10-14T21:07:31.068Z,13.80
2017-10-14T21:09:58.651Z,13.80
2017-10-14T21:12:26.240Z,14.00
2017-10-14T21:14:53.905Z,14.10
2017-10-14T21:17:21.520Z,14.10
2017-10-14T21:19:49.091Z,13.90
2017-10-14T21:22:16.686Z,13.60
2017-10-14T21:24:45.212Z,13.20
2017-10-14T21:27:12.780Z,13.20
2017-10-14T21:29:40.428Z,13.10
2017-10-14T21:32:08.148Z,13.10
2017-10-14T21:34:36.523Z,13.00
2017-10-14T21:37:04.855Z,13.00
2017-10-14T21:39:32.464Z,13.00
2017-10-14T21:42:00.811Z,12.90
2017-10-14T21:44:28.532Z,12.90
2017-10-14T21:46:56.108Z,12.90
2017-10-14T21:49:23.719Z,12.90
2017-10-14T21:51:52.086Z,12.80
2017-10-14T21:54:19.704Z,12.80
2017-10-14T21:56:47.292Z,12.80
2017-10-14T21:59:14.861Z,12.90
2017-10-14T22:01:43.957Z,12.90
2017-10-14T22:04:12.301Z,13.10
2017-10-14T22:06:40.071Z,13.10
2017-10-14T22:09:07.692Z,13.30
2017-10-14T22:11:35.294Z,13.20
2017-10-14T22:14:03.001Z,13.20
2017-10-14T22:16:31.369Z,12.90
2017-10-14T22:18:59.703Z,12.80
2017-10-14T22:21:27.391Z,12.80
2017-10-14T22:23:55.018Z,12.70
2017-10-14T22:26:22.584Z,12.70
2017-10-14T22:28:50.184Z,12.80
2017-10-14T22:31:18.519Z,13.10
2017-10-14T22:33:46.192Z,13.10
2017-10-14T22:36:13.793Z,13.20
2017-10-14T22:38:41.421Z,13.10
2017-10-14T22:41:09.007Z,12.80
2017-10-14T22:43:36.576Z,12.70
2017-10-14T22:46:04.182Z,12.50
2017-10-14T22:48:31.765Z,12.40
2017-10-14T22:51:00.121Z,12.40
2017-10-14T22:53:27.732Z,12.40
2017-10-14T22:55:55.439Z,12.50
2017-10-14T22:58:23.126Z,12.50
2017-10-14T23:00:51.471Z,12.50
2017-10-14T23:03:19.079Z,12.40
2017-10-14T23:05:46.650Z,12.40
2017-10-14T23:08:14.213Z,12.30
2017-10-14T23:10:41.806Z,12.40
2017-10-14T23:13:09.378Z,12.30
2017-10-14T23:15:37.052Z,12.40
2017-10-14T23:18:04.635Z,12.40
2017-10-14T23:20:32.234Z,12.30
2017-10-14T23:22:59.804Z,12.30
2017-10-14T23:25:27.400Z,12.30
2017-10-14T23:27:55.765Z,12.50
2017-10-14T23:30:24.107Z,12.30
2017-10-14T23:32:51.715Z,12.30
2017-10-14T23:35:20.051Z,12.10
2017-10-14T23:37:47.728Z,12.10
2017-10-14T23:40:15.329Z,12.30
2017-10-14T23:42:42.908Z,12.10
2017-10-14T23:45:10.530Z,12.10
2017-10-14T23:47:38.868Z,12.10
2017-10-14T23:50:06.490Z,12.00
2017-10-14T23:52:34.036Z,12.10
2017-10-14T23:55:01.616Z,12.10
2017-10-14T23:57:29.196Z,12.10
2017-10-14T23:59:56.776Z,12.10
